Time;durP1;ratioP1;P1;durP2;ratioP2;P2;SDS_P1;SDS_P2;PMS_P1;PMS_P2;Temp;Humidity;BMP_temperature;BMP_pressure;BME280_temperature;BME280_humidity;BME280_pressure;Samples;Min_cycle;Max_cycle;Signal;HPM_P1;HPM_P2
2021/06/27 00:00:23;;;;;;;;;;;;;;;25.24;53.84;100359.70;1735804;81;20208;-72
2021/06/27 00:02:51;;;;;;;;;;;;;;;25.25;53.89;100359.90;1726691;81;20412;-71
2021/06/27 00:05:20;;;;;;;;;;;;;;;25.25;53.92;100357.12;1729833;81;20148;-71
2021/06/27 00:07:46;;;;;;;;;;;;;;;25.27;53.98;100363.73;1729916;81;21972;-71
2021/06/27 00:10:15;;;;;;;;;;;;;;;25.27;54.02;100372.08;1727647;81;20203;-71
2021/06/27 00:12:41;;;;;;;;;;;;;;;25.28;54.07;100377.30;1735233;81;20432;-70
2021/06/27 00:15:18;;;;;;;;;;;;;;;25.28;54.10;100373.13;1735182;81;20395;-71
2021/06/27 00:17:44;;;;;;;;;;;;;;;25.31;54.16;100379.94;1729310;81;20162;-71
2021/06/27 00:20:13;;;;;;;;;;;;;;;25.30;54.21;100376.34;1727382;81;21029;-71
2021/06/27 00:22:39;;;;;;;;;;;;;;;25.31;54.25;100382.14;1729975;81;20308;-71
2021/06/27 00:25:07;;;;;;;;;;;;;;;25.32;54.29;100380.17;1729520;81;20745;-71
2021/06/27 00:27:33;;;;;;;;;;;;;;;25.32;54.34;100385.73;1728029;81;20177;-71
2021/06/27 00:29:58;;;;;;;;;;;;;;;25.34;54.39;100390.34;1751544;80;21862;-71
2021/06/27 00:32:24;;;;;;;;;;;;;;;25.34;54.46;100404.27;1770692;81;21155;-71
2021/06/27 00:34:50;;;;;;;;;;;;;;;25.35;54.51;100404.50;1773624;79;20219;-71
2021/06/27 00:37:16;;;;;;;;;;;;;;;25.34;54.56;100409.27;1772944;79;20232;-71
2021/06/27 00:39:42;;;;;;;;;;;;;;;25.36;54.59;100425.05;1774802;79;20175;-70
2021/06/27 00:42:08;;;;;;;;;;;;;;;25.37;54.64;100418.89;1774642;79;20191;-71
2021/06/27 00:44:34;;;;;;;;;;;;;;;25.36;54.68;100426.44;1773263;79;21075;-71
2021/06/27 00:47:00;;;;;;;;;;;;;;;25.38;54.72;100447.75;1772765;79;20138;-71
2021/06/27 00:49:26;;;;;;;;;;;;;;;25.38;54.76;100453.33;1769868;79;20714;-71
2021/06/27 00:51:52;;;;;;;;;;;;;;;25.39;54.80;100461.09;1770703;79;20342;-71
2021/06/27 00:54:18;;;;;;;;;;;;;;;25.41;54.85;100472.70;1770402;80;20181;-71
2021/06/27 00:56:45;;;;;;;;;;;;;;;25.40;54.91;100476.07;1770353;79;21206;-71
2021/06/27 00:59:13;;;;;;;;;;;;;;;25.40;54.95;100487.21;1770542;80;20185;-71
2021/06/27 01:01:39;;;;;;;;;;;;;;;25.41;54.99;100482.45;1771791;79;20139;-71
2021/06/27 01:04:05;;;;;;;;;;;;;;;25.41;55.01;100479.09;1773602;79;20432;-71
2021/06/27 01:06:31;;;;;;;;;;;;;;;25.42;55.06;100486.25;1772125;79;20175;-71
2021/06/27 01:08:57;;;;;;;;;;;;;;;25.42;55.11;100480.69;1773176;79;21245;-71
2021/06/27 01:11:23;;;;;;;;;;;;;;;25.42;55.16;100482.08;1772387;79;20180;-71
2021/06/27 01:13:49;;;;;;;;;;;;;;;25.43;55.19;100487.87;1773903;79;20125;-71
2021/06/27 01:16:15;;;;;;;;;;;;;;;25.43;55.24;100492.06;1770741;79;20214;-71
2021/06/27 01:18:41;;;;;;;;;;;;;;;25.44;55.28;100491.48;1739888;81;20193;-71
2021/06/27 01:21:07;;;;;;;;;;;;;;;25.43;55.33;100487.06;1743916;81;21002;-71
2021/06/27 01:23:33;;;;;;;;;;;;;;;25.44;55.35;100489.50;1783410;79;20128;-71
2021/06/27 01:25:59;;;;;;;;;;;;;;;25.43;55.38;100479.52;1770654;80;20183;-71
2021/06/27 01:28:25;;;;;;;;;;;;;;;25.45;55.44;100476.39;1772264;79;20148;-72
2021/06/27 01:30:51;;;;;;;;;;;;;;;25.46;55.48;100471.84;1771372;79;20585;-71
2021/06/27 01:33:18;;;;;;;;;;;;;;;25.45;55.53;100473.02;1763710;79;22040;-71
2021/06/27 01:35:45;;;;;;;;;;;;;;;25.45;55.57;100477.78;1766458;80;20230;-71
2021/06/27 01:38:12;;;;;;;;;;;;;;;25.45;55.60;100473.02;1783882;79;20193;-71
2021/06/27 01:40:38;;;;;;;;;;;;;;;25.46;55.65;100461.30;1788286;79;20143;-71
2021/06/27 01:43:21;;;;;;;;;;;;;;;25.47;55.67;100455.94;1772829;79;20219;-71
2021/06/27 01:45:51;;;;;;;;;;;;;;;25.46;55.71;100450.95;1773629;79;21301;-72
2021/06/27 01:48:17;;;;;;;;;;;;;;;25.47;55.74;100451.76;1786136;79;20253;-71
2021/06/27 01:50:46;;;;;;;;;;;;;;;25.48;55.77;100451.98;1786710;79;20299;-71
2021/06/27 01:53:12;;;;;;;;;;;;;;;25.48;55.82;100437.48;1788378;79;21936;-71
2021/06/27 01:55:39;;;;;;;;;;;;;;;25.49;55.85;100428.55;1779150;79;20165;-71
2021/06/27 01:58:05;;;;;;;;;;;;;;;25.48;55.88;100431.91;1782568;79;21067;-71
2021/06/27 02:00:31;;;;;;;;;;;;;;;25.50;55.93;100430.75;1790989;79;20298;-71
2021/06/27 02:02:57;;;;;;;;;;;;;;;25.50;55.97;100441.89;1791976;79;20271;-71
2021/06/27 02:05:23;;;;;;;;;;;;;;;25.50;55.98;100441.31;1782870;79;20276;-71
2021/06/27 02:07:49;;;;;;;;;;;;;;;25.51;56.03;100451.84;1783332;79;20262;-71
2021/06/27 02:10:20;;;;;;;;;;;;;;;25.51;56.05;100447.66;1783230;79;21064;-71
2021/06/27 02:12:47;;;;;;;;;;;;;;;25.51;56.08;100447.66;1783241;79;20191;-71
2021/06/27 02:15:13;;;;;;;;;;;;;;;25.51;56.13;100441.52;1783530;79;20144;-71
2021/06/27 02:17:52;;;;;;;;;;;;;;;25.53;56.17;100442.56;1788578;79;20230;-71
2021/06/27 02:20:18;;;;;;;;;;;;;;;25.52;56.20;100431.18;1782150;79;20328;-71
2021/06/27 02:22:44;;;;;;;;;;;;;;;25.53;56.21;100435.05;1782686;79;21116;-71
2021/06/27 02:25:10;;;;;;;;;;;;;;;25.53;56.26;100437.83;1780671;79;20264;-71
2021/06/27 02:27:36;;;;;;;;;;;;;;;25.53;56.29;100435.59;1781221;79;20096;-72
2021/06/27 02:30:05;;;;;;;;;;;;;;;25.53;56.32;100433.66;1776052;79;20371;-71
2021/06/27 02:32:31;;;;;;;;;;;;;;;25.54;56.37;100434.46;1745028;81;21260;-71
2021/06/27 02:34:57;;;;;;;;;;;;;;;25.54;56.38;100415.78;1745093;81;21064;-71
2021/06/27 02:37:23;;;;;;;;;;;;;;;25.54;56.43;100410.78;1736395;81;20288;-71
2021/06/27 02:39:48;;;;;;;;;;;;;;;25.54;56.45;100414.96;1736476;81;20813;-71
2021/06/27 02:42:14;;;;;;;;;;;;;;;25.54;56.51;100421.34;1740009;81;20292;-71
2021/06/27 02:44:40;;;;;;;;;;;;;;;25.54;56.56;100414.38;1739329;81;20197;-71
2021/06/27 02:47:06;;;;;;;;;;;;;;;25.55;56.56;100413.77;1737440;81;21187;-71
2021/06/27 02:49:32;;;;;;;;;;;;;;;25.55;56.61;100406.23;1738187;81;20288;-71
2021/06/27 02:51:58;;;;;;;;;;;;;;;25.56;56.63;100407.04;1742684;81;20769;-70
2021/06/27 02:54:24;;;;;;;;;;;;;;;25.56;56.68;100411.22;1737291;81;20499;-71
2021/06/27 02:56:50;;;;;;;;;;;;;;;25.56;56.71;100404.25;1732424;81;20233;-71
2021/06/27 02:59:16;;;;;;;;;;;;;;;25.56;56.74;100410.64;1738843;81;21004;-71
2021/06/27 03:01:42;;;;;;;;;;;;;;;25.57;56.76;100405.88;1740306;81;20206;-71
2021/06/27 03:04:08;;;;;;;;;;;;;;;25.57;56.78;100412.84;1736872;81;20995;-72
2021/06/27 03:06:33;;;;;;;;;;;;;;;25.57;56.82;100413.66;1741279;81;20180;-71
2021/06/27 03:08:59;;;;;;;;;;;;;;;25.57;56.83;100415.63;1740773;81;20231;-71
2021/06/27 03:11:25;;;;;;;;;;;;;;;25.59;56.86;100425.23;1735056;81;21152;-70
2021/06/27 03:13:53;;;;;;;;;;;;;;;25.58;56.87;100414.47;1742810;81;20873;-71
2021/06/27 03:16:19;;;;;;;;;;;;;;;25.58;56.91;100416.67;1733204;81;20208;-71
2021/06/27 03:18:45;;;;;;;;;;;;;;;25.60;56.92;100417.69;1737221;81;20202;-70
2021/06/27 03:21:10;;;;;;;;;;;;;;;25.59;56.95;100421.66;1714611;81;20759;-71
2021/06/27 03:23:36;;;;;;;;;;;;;;;25.61;56.99;100426.27;1736201;81;21751;-71
2021/06/27 03:26:02;;;;;;;;;;;;;;;25.60;56.99;100431.03;1736051;81;20182;-71
2021/06/27 03:28:32;;;;;;;;;;;;;;;25.62;57.03;100432.08;1739037;81;20139;-71
2021/06/27 03:30:56;;;;;;;;;;;;;;;25.63;57.05;100436.48;1733605;81;20695;-71
2021/06/27 03:33:22;;;;;;;;;;;;;;;25.61;57.09;100434.63;1743452;81;20354;-71
2021/06/27 03:35:48;;;;;;;;;;;;;;;25.63;57.10;100432.30;1718791;82;21168;-71
2021/06/27 03:40:42;;;;;;;;;;;;;;;25.63;57.15;100430.30;1726931;82;20153;-71
2021/06/27 03:43:08;;;;;;;;;;;;;;;25.65;57.19;100433.55;1694609;82;20262;-71
2021/06/27 03:45:34;;;;;;;;;;;;;;;25.65;57.20;100437.73;1718742;82;20213;-70
2021/06/27 03:48:00;;;;;;;;;;;;;;;25.67;57.22;100442.95;1723529;82;21961;-71
2021/06/27 03:50:26;;;;;;;;;;;;;;;25.66;57.23;100427.39;1725351;82;20250;-71
2021/06/27 03:52:52;;;;;;;;;;;;;;;25.67;57.26;100424.84;1719279;82;20193;-71
2021/06/27 03:55:19;;;;;;;;;;;;;;;25.67;57.28;100435.98;1715511;82;20558;-71
2021/06/27 03:57:46;;;;;;;;;;;;;;;25.67;57.32;100434.02;1723239;82;20207;-71
2021/06/27 04:00:13;;;;;;;;;;;;;;;25.67;57.33;100442.95;1731819;82;21035;-71
2021/06/27 04:02:39;;;;;;;;;;;;;;;25.68;57.35;100450.12;1722565;82;20112;-71
2021/06/27 04:05:06;;;;;;;;;;;;;;;25.68;57.39;100447.33;1722945;82;20237;-70
2021/06/27 04:07:32;;;;;;;;;;;;;;;25.68;57.41;100443.16;1724186;82;20162;-71
2021/06/27 04:09:58;;;;;;;;;;;;;;;25.67;57.42;100438.19;1725201;82;20139;-71
2021/06/27 04:12:24;;;;;;;;;;;;;;;25.68;57.46;100443.16;1725987;82;21075;-71
2021/06/27 04:14:50;;;;;;;;;;;;;;;25.69;57.49;100447.56;1721425;82;20759;-71
2021/06/27 04:17:20;;;;;;;;;;;;;;;25.72;57.48;100446.83;1723766;82;20131;-70
2021/06/27 04:19:44;;;;;;;;;;;;;;;25.74;57.51;100451.47;1721852;82;20186;-70
2021/06/27 04:22:10;;;;;;;;;;;;;;;25.77;57.57;100455.73;1719607;82;20224;-70
2021/06/27 04:24:36;;;;;;;;;;;;;;;25.81;57.64;100456.63;1725755;82;21080;-71
2021/06/27 04:27:03;;;;;;;;;;;;;;;25.87;57.68;100454.38;1723263;82;20167;-71
2021/06/27 04:29:28;;;;;;;;;;;;;;;25.93;57.73;100457.09;1718032;82;20157;-70
2021/06/27 04:31:54;;;;;;;;;;;;;;;25.99;57.74;100457.64;1712595;82;20591;-71
2021/06/27 04:34:22;;;;;;;;;;;;;;;26.05;57.76;100452.83;1712688;82;20242;-72
2021/06/27 04:36:48;;;;;;;;;;;;;;;26.12;57.73;100450.78;1711355;82;21822;-72
2021/06/27 04:39:15;;;;;;;;;;;;;;;26.18;57.70;100450.73;1707574;82;20179;-71
2021/06/27 04:41:43;;;;;;;;;;;;;;;26.23;57.68;100447.08;1714300;81;20148;-71
2021/06/27 04:44:10;;;;;;;;;;;;;;;26.27;57.64;100452.15;1715938;83;20424;-72
2021/06/27 04:46:36;;;;;;;;;;;;;;;26.31;57.56;100452.22;1704591;82;20092;-71
2021/06/27 04:49:02;;;;;;;;;;;;;;;26.33;57.51;100452.68;1691387;82;21035;-71
2021/06/27 04:51:28;;;;;;;;;;;;;;;26.33;57.46;100452.68;1707776;83;20167;-71
2021/06/27 04:53:54;;;;;;;;;;;;;;;26.32;57.42;100450.47;1732354;82;20777;-71
2021/06/27 04:56:19;;;;;;;;;;;;;;;26.30;57.37;100456.20;1716234;81;20612;-71
2021/06/27 04:58:45;;;;;;;;;;;;;;;26.28;57.36;100452.96;1730915;81;20160;-71
2021/06/27 05:01:11;;;;;;;;;;;;;;;26.26;57.36;100444.98;1715326;83;21142;-69
2021/06/27 05:03:37;;;;;;;;;;;;;;;26.23;57.39;100441.50;1711549;82;20146;-70
2021/06/27 05:06:04;;;;;;;;;;;;;;;26.21;57.37;100448.05;1710364;82;20159;-70
2021/06/27 05:08:30;;;;;;;;;;;;;;;26.17;57.42;100450.50;1714801;82;20699;-71
2021/06/27 05:10:56;;;;;;;;;;;;;;;26.15;57.44;100466.19;1714762;82;20180;-70
2021/06/27 05:13:22;;;;;;;;;;;;;;;26.12;57.48;100464.14;1705507;83;21182;-71
2021/06/27 05:15:48;;;;;;;;;;;;;;;26.10;57.51;100470.64;1716647;83;20779;-71
2021/06/27 05:18:14;;;;;;;;;;;;;;;26.07;57.56;100476.14;1702731;83;20266;-71
2021/06/27 05:20:40;;;;;;;;;;;;;;;26.05;57.60;100475.13;1712238;83;20159;-71
2021/06/27 05:23:06;;;;;;;;;;;;;;;26.04;57.66;100486.64;1696081;82;20219;-70
2021/06/27 05:25:32;;;;;;;;;;;;;;;26.02;57.68;100494.53;1712285;83;21163;-70
2021/06/27 05:27:59;;;;;;;;;;;;;;;26.00;57.73;100498.29;1708980;82;20351;-71
2021/06/27 05:30:26;;;;;;;;;;;;;;;25.98;57.75;100500.03;1715989;82;20459;-71
2021/06/27 05:32:51;;;;;;;;;;;;;;;25.97;57.80;100503.20;1727257;82;20391;-70
2021/06/27 05:35:17;;;;;;;;;;;;;;;25.94;57.85;100493.56;1781808;79;20193;-70
2021/06/27 05:37:43;;;;;;;;;;;;;;;25.93;57.88;100495.54;1782894;78;21138;-73
2021/06/27 05:40:10;;;;;;;;;;;;;;;25.93;57.93;100496.73;1780513;79;20291;-71
2021/06/27 05:42:36;;;;;;;;;;;;;;;25.92;57.99;100501.50;1782742;79;20145;-71
2021/06/27 05:45:03;;;;;;;;;;;;;;;25.90;58.00;100497.66;1765419;79;20755;-71
2021/06/27 05:47:29;;;;;;;;;;;;;;;25.89;58.04;100493.84;1771427;79;20396;-71
2021/06/27 05:49:55;;;;;;;;;;;;;;;25.89;58.08;100499.41;1772079;79;21152;-70
2021/06/27 05:52:21;;;;;;;;;;;;;;;25.88;58.11;100492.23;1769941;79;20749;-71
2021/06/27 05:54:47;;;;;;;;;;;;;;;25.86;58.16;100488.41;1773172;80;20280;-70
2021/06/27 05:57:13;;;;;;;;;;;;;;;25.86;58.19;100492.59;1772809;79;20367;-71
2021/06/27 05:59:38;;;;;;;;;;;;;;;25.85;58.21;100494.33;1768340;79;20134;-71
2021/06/27 06:02:05;;;;;;;;;;;;;;;25.85;58.26;100487.36;1771801;79;21170;-70
2021/06/27 06:04:30;;;;;;;;;;;;;;;25.85;58.28;100491.55;1769557;79;20105;-71
2021/06/27 06:06:56;;;;;;;;;;;;;;;25.83;58.32;100489.72;1768499;79;20829;-70
2021/06/27 06:09:22;;;;;;;;;;;;;;;25.83;58.33;100489.72;1767358;79;20571;-70
2021/06/27 06:11:48;;;;;;;;;;;;;;;25.82;58.36;100488.91;1764021;79;20241;-70
2021/06/27 06:14:14;;;;;;;;;;;;;;;25.83;58.39;100493.90;1766063;79;21146;-71
2021/06/27 06:16:41;;;;;;;;;;;;;;;25.82;58.40;100489.48;1765270;80;20238;-70
2021/06/27 06:19:08;;;;;;;;;;;;;;;25.82;58.43;100490.88;1738659;80;20203;-70
2021/06/27 06:21:34;;;;;;;;;;;;;;;25.82;58.44;100495.06;1774371;79;20149;-70
2021/06/27 06:23:59;;;;;;;;;;;;;;;25.80;58.49;100501.59;1768010;80;20186;-71
2021/06/27 06:26:25;;;;;;;;;;;;;;;25.80;58.51;100502.38;1771991;79;21144;-71
2021/06/27 06:28:51;;;;;;;;;;;;;;;25.81;58.53;100505.98;1771084;79;20825;-70
2021/06/27 06:31:17;;;;;;;;;;;;;;;25.81;58.55;100514.34;1770185;79;20280;-70
2021/06/27 06:33:46;;;;;;;;;;;;;;;25.80;58.57;100513.52;1780843;79;20159;-71
2021/06/27 06:36:11;;;;;;;;;;;;;;;25.81;58.61;100515.73;1781287;79;20193;-71
2021/06/27 06:38:37;;;;;;;;;;;;;;;25.80;58.61;100509.95;1780203;79;21239;-70
2021/06/27 06:41:03;;;;;;;;;;;;;;;25.80;58.64;100519.71;1780452;79;20085;-70
2021/06/27 06:43:29;;;;;;;;;;;;;;;25.79;58.67;100514.72;1747107;81;20250;-71
2021/06/27 06:45:55;;;;;;;;;;;;;;;25.80;58.69;100523.89;1742950;81;20265;-71
2021/06/27 06:48:21;;;;;;;;;;;;;;;25.80;58.70;100525.28;1741263;81;20171;-71
2021/06/27 06:50:47;;;;;;;;;;;;;;;25.80;58.76;100521.11;1741012;81;21079;-70
2021/06/27 06:53:13;;;;;;;;;;;;;;;25.80;58.77;100519.10;1769977;80;20125;-71
2021/06/27 06:55:39;;;;;;;;;;;;;;;25.80;58.77;100521.11;1772468;79;20165;-70
2021/06/27 06:58:05;;;;;;;;;;;;;;;25.83;58.76;100523.98;1766698;79;20132;-66
2021/06/27 07:00:31;;;;;;;;;;;;;;;25.86;58.85;100516.28;1762734;79;20251;-67
2021/06/27 07:02:57;;;;;;;;;;;;;;;25.90;58.91;100512.19;1769487;79;21250;-65
2021/06/27 07:05:23;;;;;;;;;;;;;;;25.93;58.97;100508.08;1769867;80;20112;-64
2021/06/27 07:07:49;;;;;;;;;;;;;;;25.98;59.04;100513.97;1767856;80;20184;-65
2021/06/27 07:10:15;;;;;;;;;;;;;;;26.02;59.08;100511.27;1769630;80;20159;-65
2021/06/27 07:12:42;;;;;;;;;;;;;;;26.08;59.13;100507.05;1769902;80;20262;-64
2021/06/27 07:15:09;;;;;;;;;;;;;;;26.14;59.18;100509.79;1771489;80;20971;-63
2021/06/27 07:17:35;;;;;;;;;;;;;;;26.19;59.16;100510.30;1761982;79;20380;-64
2021/06/27 07:20:01;;;;;;;;;;;;;;;26.25;59.16;100513.08;1764211;80;20278;-64
2021/06/27 07:22:27;;;;;;;;;;;;;;;26.30;59.18;100517.56;1765587;79;21997;-64
2021/06/27 07:24:53;;;;;;;;;;;;;;;26.36;59.14;100524.46;1764286;80;20264;-61
2021/06/27 07:27:18;;;;;;;;;;;;;;;26.39;59.09;100522.94;1765025;81;21085;-65
2021/06/27 07:29:44;;;;;;;;;;;;;;;26.39;59.02;100525.73;1733207;81;20768;-66
2021/06/27 07:32:12;;;;;;;;;;;;;;;26.40;58.93;100518.96;1732347;81;20709;-66
2021/06/27 07:34:38;;;;;;;;;;;;;;;26.39;58.91;100522.94;1764142;80;20160;-67
2021/06/27 07:37:05;;;;;;;;;;;;;;;26.38;58.86;100524.11;1763686;79;20200;-66
2021/06/27 07:39:31;;;;;;;;;;;;;;;26.36;58.82;100523.06;1729879;82;21132;-64
2021/06/27 07:41:57;;;;;;;;;;;;;;;26.34;58.83;100525.42;1689180;83;20684;-65
2021/06/27 07:44:23;;;;;;;;;;;;;;;26.31;58.83;100522.77;1731972;81;20203;-65
2021/06/27 07:46:48;;;;;;;;;;;;;;;26.30;58.83;100529.53;1705563;82;20188;-65
2021/06/27 07:49:14;;;;;;;;;;;;;;;26.28;58.83;100521.29;1695357;83;20284;-64
2021/06/27 07:51:40;;;;;;;;;;;;;;;26.27;58.83;100528.84;1699359;83;20961;-65
2021/06/27 07:54:06;;;;;;;;;;;;;;;26.24;58.82;100529.58;1693033;83;21197;-65
2021/06/27 07:56:32;;;;;;;;;;;;;;;26.21;58.80;100530.31;1712740;82;20157;-64
2021/06/27 07:58:59;;;;;;;;;;;;;;;26.20;58.80;100530.08;1718893;82;20223;-63
2021/06/27 08:01:25;;;;;;;;;;;;;;;26.18;58.83;100526.80;1724206;82;20183;-64
2021/06/27 08:03:50;;;;;;;;;;;;;;;26.16;58.85;100524.16;1719017;82;21108;-65
2021/06/27 08:06:17;;;;;;;;;;;;;;;26.14;58.86;100525.91;1720096;82;20783;-65
2021/06/27 08:08:43;;;;;;;;;;;;;;;26.14;58.90;100532.88;1711734;82;20160;-65
2021/06/27 08:11:09;;;;;;;;;;;;;;;26.13;58.91;100534.08;1715621;82;20167;-67
2021/06/27 08:13:36;;;;;;;;;;;;;;;26.13;58.91;100542.44;1722701;82;20249;-65
2021/06/27 08:16:02;;;;;;;;;;;;;;;26.13;58.93;100537.44;1717365;82;21107;-65
2021/06/27 08:18:28;;;;;;;;;;;;;;;26.11;58.96;100540.58;1714826;82;20537;-62
2021/06/27 08:20:54;;;;;;;;;;;;;;;26.12;58.97;100555.34;1720450;83;20433;-63
2021/06/27 08:23:20;;;;;;;;;;;;;;;26.12;58.97;100546.97;1705779;83;20187;-64
2021/06/27 08:25:46;;;;;;;;;;;;;;;26.11;59.01;100541.98;1709339;82;20179;-63
2021/06/27 08:28:12;;;;;;;;;;;;;;;26.10;59.03;100541.74;1725599;83;21145;-64
2021/06/27 08:30:38;;;;;;;;;;;;;;;26.10;59.07;100533.96;1715932;83;20269;-63
2021/06/27 08:33:04;;;;;;;;;;;;;;;26.09;59.07;100532.37;1706315;83;20169;-63
2021/06/27 08:35:30;;;;;;;;;;;;;;;26.08;59.13;100539.11;1720149;81;20208;-63
2021/06/27 08:37:56;;;;;;;;;;;;;;;26.08;59.14;100541.89;1717871;82;20298;-63
2021/06/27 08:40:22;;;;;;;;;;;;;;;26.07;59.15;100531.33;1715880;83;20921;-62
2021/06/27 08:42:49;;;;;;;;;;;;;;;26.09;59.17;100543.52;1714757;83;20158;-63
2021/06/27 08:45:16;;;;;;;;;;;;;;;26.10;59.21;100538.95;1717242;82;20527;-63
2021/06/27 08:47:42;;;;;;;;;;;;;;;26.11;59.20;100538.37;1721412;82;20582;-63
2021/06/27 08:50:10;;;;;;;;;;;;;;;26.12;59.21;100535.23;1743718;81;20175;-62
2021/06/27 08:52:36;;;;;;;;;;;;;;;26.13;59.20;100540.23;1746321;80;21159;-63
2021/06/27 08:55:02;;;;;;;;;;;;;;;26.13;59.19;100536.05;1749281;80;20816;-64
2021/06/27 08:57:29;;;;;;;;;;;;;;;26.13;59.20;100541.63;1747088;80;20200;-66
2021/06/27 08:59:58;;;;;;;;;;;;;;;26.13;59.21;100539.65;1715763;81;20402;-66
2021/06/27 09:02:23;;;;;;;;;;;;;;;26.13;59.21;100536.86;1749270;80;20312;-65
2021/06/27 09:04:49;;;;;;;;;;;;;;;26.13;59.21;100539.65;1744495;80;21198;-65
2021/06/27 09:07:33;;;;;;;;;;;;;;;26.12;59.20;100528.27;1747919;80;20199;-65
2021/06/27 09:10:21;;;;;;;;;;;;;;;26.12;59.21;100532.45;1750632;80;20193;-65
2021/06/27 09:12:50;;;;;;;;;;;;;;;26.13;59.21;100530.47;1747867;80;20166;-65
2021/06/27 09:15:37;;;;;;;;;;;;;;;26.14;59.22;100532.88;1747954;80;20467;-64
2021/06/27 09:18:05;;;;;;;;;;;;;;;26.14;59.22;100532.09;1744714;80;20968;-65
2021/06/27 09:20:31;;;;;;;;;;;;;;;26.15;59.22;100530.91;1743786;80;20189;-65
2021/06/27 09:22:57;;;;;;;;;;;;;;;26.18;59.25;100528.19;1753610;80;20166;-65
2021/06/27 09:25:28;;;;;;;;;;;;;;;26.23;59.29;100527.14;1745269;80;20226;-65
2021/06/27 09:28:15;;;;;;;;;;;;;;;26.25;59.31;100524.81;1746667;80;20196;-65
2021/06/27 09:30:48;;;;;;;;;;;;;;;26.28;59.34;100521.29;1745990;80;21913;-65
2021/06/27 09:33:22;;;;;;;;;;;;;;;26.29;59.37;100517.34;1731210;80;20606;-65
2021/06/27 09:35:59;;;;;;;;;;;;;;;26.32;59.37;100519.39;1745925;79;20144;-65
2021/06/27 09:38:47;;;;;;;;;;;;;;;26.35;59.36;100515.28;1763157;80;20159;-65
2021/06/27 09:41:19;;;;;;;;;;;;;;;26.40;59.33;100514.77;1780984;79;20206;-65
2021/06/27 09:43:56;;;;;;;;;;;;;;;26.43;59.26;100508.48;1769411;79;21108;-65
2021/06/27 09:46:42;;;;;;;;;;;;;;;26.46;59.21;100506.36;1762752;79;20435;-65
2021/06/27 09:49:13;;;;;;;;;;;;;;;26.48;59.09;100508.21;1756651;80;20189;-65
2021/06/27 09:51:41;;;;;;;;;;;;;;;26.49;58.94;100493.88;1753655;80;21865;-65
2021/06/27 09:54:15;;;;;;;;;;;;;;;26.49;58.81;100507.83;1740516;80;20471;-66
2021/06/27 09:56:41;;;;;;;;;;;;;;;26.47;58.73;100505.19;1753334;80;21141;-65
2021/06/27 09:59:09;;;;;;;;;;;;;;;26.44;58.62;100509.50;1757317;80;21657;-64
2021/06/27 10:01:36;;;;;;;;;;;;;;;26.44;58.54;100504.53;1748418;80;20185;-66
2021/06/27 10:04:04;;;;;;;;;;;;;;;26.42;58.46;100509.08;1749380;80;20185;-64
2021/06/27 10:06:35;;;;;;;;;;;;;;;26.40;58.39;100503.03;1754557;80;20267;-65
2021/06/27 10:09:12;;;;;;;;;;;;;;;26.39;58.32;100500.63;1711160;82;21261;-65
2021/06/27 10:11:38;;;;;;;;;;;;;;;26.35;58.27;100508.31;1746066;81;20187;-65
2021/06/27 10:14:09;;;;;;;;;;;;;;;26.32;58.19;100505.44;1743667;81;20514;-63
2021/06/27 10:16:35;;;;;;;;;;;;;;;26.31;58.17;100512.19;1749102;81;20203;-63
2021/06/27 10:19:02;;;;;;;;;;;;;;;26.30;58.12;100511.98;1748050;80;20551;-62
2021/06/27 10:21:28;;;;;;;;;;;;;;;26.28;58.03;100512.34;1745693;81;21208;-62
2021/06/27 10:23:54;;;;;;;;;;;;;;;26.25;57.98;100513.08;1747490;80;20146;-62
2021/06/27 10:26:21;;;;;;;;;;;;;;;26.25;57.93;100517.84;1743898;81;20212;-64
2021/06/27 10:28:48;;;;;;;;;;;;;;;26.23;57.91;100511.22;1750000;81;20460;-62
2021/06/27 10:31:15;;;;;;;;;;;;;;;26.21;57.82;100511.37;1749048;81;20241;-64
2021/06/27 10:33:41;;;;;;;;;;;;;;;26.19;57.76;100513.67;1723949;81;21137;-64
2021/06/27 10:36:09;;;;;;;;;;;;;;;26.15;57.69;100508.02;1714323;82;20466;-63
2021/06/27 10:38:35;;;;;;;;;;;;;;;26.14;57.65;100503.59;1713766;82;20199;-63
2021/06/27 10:41:01;;;;;;;;;;;;;;;26.14;57.58;100508.40;1694219;82;22054;-63
2021/06/27 10:44:05;;;;;;;;;;;;;;;26.13;57.52;100508.16;1711432;81;20264;-65
2021/06/27 10:46:41;;;;;;;;;;;;;;;26.10;57.43;100513.86;1691463;83;21152;-64
2021/06/27 10:49:10;;;;;;;;;;;;;;;26.08;57.35;100511.22;1753095;80;20243;-63
2021/06/27 10:52:06;;;;;;;;;;;;;;;26.06;57.30;100510.19;1744237;80;20260;-64
2021/06/27 10:54:34;;;;;;;;;;;;;;;26.04;57.20;100509.75;1761057;80;21958;-64
2021/06/27 10:57:05;;;;;;;;;;;;;;;26.03;57.09;100501.73;1759225;80;20211;-65
2021/06/27 10:59:54;;;;;;;;;;;;;;;26.01;57.02;100503.52;1757856;79;21066;-64
2021/06/27 11:02:37;;;;;;;;;;;;;;;26.01;56.96;100509.67;1776481;78;20160;-63
2021/06/27 11:05:33;;;;;;;;;;;;;;;25.99;56.88;100503.63;1757312;80;20582;-64
2021/06/27 11:08:00;;;;;;;;;;;;;;;25.98;56.78;100505.61;1765250;79;20092;-63
2021/06/27 11:10:27;;;;;;;;;;;;;;;25.96;56.67;100496.00;1766790;79;20122;-63
2021/06/27 11:13:07;;;;;;;;;;;;;;;25.94;56.59;100504.72;1764991;80;21119;-63
2021/06/27 11:15:35;;;;;;;;;;;;;;;25.93;56.54;100491.16;1766246;79;20140;-62
2021/06/27 11:18:08;;;;;;;;;;;;;;;25.92;56.45;100493.13;1758366;79;20149;-62
2021/06/27 11:20:50;;;;;;;;;;;;;;;25.92;56.37;100493.13;1730871;81;20152;-62
2021/06/27 11:23:16;;;;;;;;;;;;;;;25.90;56.30;100489.88;1702684;82;20148;-62
2021/06/27 11:25:49;;;;;;;;;;;;;;;25.89;56.23;100488.26;1697807;83;21173;-62
2021/06/27 11:28:22;;;;;;;;;;;;;;;25.88;56.17;100484.69;1759033;80;20494;-62
2021/06/27 11:30:51;;;;;;;;;;;;;;;25.88;56.10;100479.70;1764174;79;20437;-62
2021/06/27 11:33:25;;;;;;;;;;;;;;;25.88;56.05;100475.52;1768254;78;20449;-62
2021/06/27 11:35:57;;;;;;;;;;;;;;;25.88;55.98;100470.75;1782587;79;20145;-62
2021/06/27 11:38:42;;;;;;;;;;;;;;;25.89;55.90;100474.33;1782854;78;23162;-62
2021/06/27 11:41:11;;;;;;;;;;;;;;;25.90;55.81;100477.34;1783887;78;21548;-62
2021/06/27 11:44:02;;;;;;;;;;;;;;;25.91;55.75;100488.72;1781700;79;20154;-62
2021/06/27 11:46:39;;;;;;;;;;;;;;;25.90;55.66;100493.48;1774323;78;20132;-62
2021/06/27 11:49:08;;;;;;;;;;;;;;;25.93;55.61;100496.12;1784496;78;20411;-62
2021/06/27 11:51:36;;;;;;;;;;;;;;;25.93;55.49;100505.30;1777186;78;20897;-62
2021/06/27 11:54:03;;;;;;;;;;;;;;;25.95;55.42;100502.74;1789858;79;20191;-62
2021/06/27 11:56:49;;;;;;;;;;;;;;;25.96;55.35;100505.17;1769688;79;20399;-62
2021/06/27 11:59:15;;;;;;;;;;;;;;;25.96;55.30;100501.00;1744188;80;20190;-62
2021/06/27 12:01:41;;;;;;;;;;;;;;;25.96;55.26;100498.21;1742266;80;20189;-64
2021/06/27 12:04:07;;;;;;;;;;;;;;;25.96;55.20;100499.60;1742939;80;21260;-62
2021/06/27 12:06:36;;;;;;;;;;;;;;;25.95;55.16;100491.59;1715237;81;20924;-62
2021/06/27 12:09:03;;;;;;;;;;;;;;;25.95;55.13;100503.55;1713296;82;20183;-62
2021/06/27 12:11:30;;;;;;;;;;;;;;;25.95;55.08;100499.38;1735821;81;20457;-62
2021/06/27 12:13:57;;;;;;;;;;;;;;;25.93;55.03;100504.48;1766082;79;20137;-61
2021/06/27 12:16:32;;;;;;;;;;;;;;;25.93;55.03;100505.09;1768243;79;21079;-62
2021/06/27 12:18:59;;;;;;;;;;;;;;;25.93;55.01;100507.27;1772184;79;20095;-65
2021/06/27 12:21:27;;;;;;;;;;;;;;;25.96;55.01;100511.33;1768527;79;20239;-62
2021/06/27 12:23:56;;;;;;;;;;;;;;;25.97;55.00;100503.98;1768361;79;21876;-61
2021/06/27 12:26:23;;;;;;;;;;;;;;;26.01;54.99;100502.13;1747313;80;20210;-61
2021/06/27 12:28:51;;;;;;;;;;;;;;;26.07;55.01;100502.05;1750804;80;21260;-61
2021/06/27 12:31:22;;;;;;;;;;;;;;;26.12;55.02;100505.95;1728264;81;20231;-61
2021/06/27 12:33:50;;;;;;;;;;;;;;;26.17;55.02;100507.66;1705279;82;20416;-62
2021/06/27 12:36:25;;;;;;;;;;;;;;;26.23;55.03;100514.59;1706185;82;20191;-62
2021/06/27 12:38:54;;;;;;;;;;;;;;;26.27;55.05;100502.35;1686109;82;20197;-61
2021/06/27 12:41:23;;;;;;;;;;;;;;;26.33;55.07;100502.89;1699306;82;21145;-62